createdAt,value
2017-03-18T00:00:41.227Z,1000.16
2017-03-18T00:01:50.211Z,1000.14
2017-03-18T00:02:59.197Z,1000.13
2017-03-18T00:04:08.407Z,1000.11
2017-03-18T00:05:17.362Z,1000.07
2017-03-18T00:06:26.320Z,999.98
2017-03-18T00:07:35.274Z,1000.04
2017-03-18T00:08:44.230Z,1000.07
2017-03-18T00:09:53.493Z,1000.03
2017-03-18T00:11:02.487Z,1000.06
2017-03-18T00:12:11.442Z,1000.07
2017-03-18T00:13:20.401Z,1000.01
2017-03-18T00:14:29.368Z,999.99
2017-03-18T00:15:38.578Z,1000.01
2017-03-18T00:16:47.529Z,999.97
2017-03-18T00:17:56.484Z,999.94
2017-03-18T00:19:05.475Z,999.97
2017-03-18T00:20:14.437Z,999.99
2017-03-18T00:21:23.637Z,999.99
2017-03-18T00:22:32.597Z,999.93
2017-03-18T00:23:41.568Z,999.98
2017-03-18T00:24:50.526Z,999.96
2017-03-18T00:25:59.489Z,999.95
2017-03-18T00:27:08.698Z,999.91
2017-03-18T00:28:17.654Z,999.96
2017-03-18T00:29:26.613Z,999.94
2017-03-18T00:30:35.899Z,999.87
2017-03-18T00:31:44.849Z,999.82
2017-03-18T00:32:54.101Z,999.83
2017-03-18T00:34:03.065Z,999.73
2017-03-18T00:35:12.025Z,999.74
2017-03-18T00:36:20.980Z,999.77
2017-03-18T00:37:29.939Z,999.75
2017-03-18T00:38:39.151Z,999.7
2017-03-18T00:39:48.107Z,999.7
2017-03-18T00:40:57.064Z,999.64
2017-03-18T00:42:06.023Z,999.65
2017-03-18T00:43:14.979Z,999.61
2017-03-18T00:44:24.190Z,999.66
2017-03-18T00:45:33.148Z,999.63
2017-03-18T00:46:42.100Z,999.57
2017-03-18T00:47:51.050Z,999.58
2017-03-18T00:49:00.010Z,999.57
2017-03-18T00:50:09.219Z,999.54
2017-03-18T00:51:18.171Z,999.54
2017-03-18T00:52:27.130Z,999.53
2017-03-18T00:53:36.183Z,999.49
2017-03-18T00:54:45.466Z,999.43
2017-03-18T00:55:54.678Z,999.4
2017-03-18T00:57:03.715Z,999.4
2017-03-18T00:58:12.669Z,999.39
2017-03-18T00:59:21.638Z,999.43
2017-03-18T01:00:30.601Z,999.41
2017-03-18T01:01:39.894Z,999.39
2017-03-18T01:02:48.846Z,999.33
2017-03-18T01:03:57.806Z,999.35
2017-03-18T01:05:07.088Z,999.31
2017-03-18T01:06:16.044Z,999.23
2017-03-18T01:07:25.384Z,999.17
2017-03-18T01:08:34.341Z,999.16
2017-03-18T01:09:43.310Z,999.1
2017-03-18T01:10:52.370Z,999.18
2017-03-18T01:12:01.324Z,999.15
2017-03-18T01:13:10.533Z,999.03
2017-03-18T01:14:19.815Z,999.06
2017-03-18T01:15:28.774Z,998.92
2017-03-18T01:16:37.729Z,998.88
2017-03-18T01:17:46.700Z,998.88
2017-03-18T01:18:55.967Z,998.83
2017-03-18T01:20:04.927Z,998.81
2017-03-18T01:21:13.881Z,998.79
2017-03-18T01:22:22.832Z,998.75
2017-03-18T01:23:31.791Z,998.71
2017-03-18T01:24:41.000Z,998.7
2017-03-18T01:25:49.956Z,998.68
2017-03-18T01:26:58.947Z,998.68
2017-03-18T01:28:07.912Z,998.66
2017-03-18T01:29:16.873Z,998.68
2017-03-18T01:30:26.082Z,998.68
2017-03-18T01:31:35.040Z,998.58
2017-03-18T01:32:43.995Z,998.61
2017-03-18T01:33:53.044Z,998.66
2017-03-18T01:35:02.325Z,998.51
2017-03-18T01:36:11.531Z,998.52
2017-03-18T01:37:20.490Z,998.43
2017-03-18T01:38:29.447Z,998.46
2017-03-18T01:39:38.443Z,998.51
2017-03-18T01:40:47.490Z,998.71
2017-03-18T01:41:56.696Z,998.59
2017-03-18T01:43:05.743Z,998.53
2017-03-18T01:44:14.707Z,998.43
2017-03-18T01:45:23.671Z,998.46
2017-03-18T01:46:32.626Z,998.45
2017-03-18T01:47:41.858Z,998.46
2017-03-18T01:48:50.903Z,998.41
2017-03-18T01:49:59.863Z,998.37
2017-03-18T01:51:08.816Z,998.37
2017-03-18T01:52:17.775Z,998.3
2017-03-18T01:53:26.983Z,998.29
2017-03-18T01:54:35.951Z,998.31
2017-03-18T01:55:44.909Z,998.21
2017-03-18T01:56:53.950Z,998.25
2017-03-18T01:58:02.905Z,998.23
2017-03-18T01:59:12.120Z,998.27
2017-03-18T02:00:21.173Z,998.26
2017-03-18T02:01:30.126Z,998.23
2017-03-18T02:02:39.164Z,998.07
2017-03-18T02:03:48.130Z,998.17
2017-03-18T02:04:57.393Z,998.14
2017-03-18T02:06:06.351Z,998.1
2017-03-18T02:07:15.301Z,998.03
2017-03-18T02:08:24.253Z,998.1
2017-03-18T02:09:33.246Z,997.96
2017-03-18T02:10:42.506Z,998.05
2017-03-18T02:11:51.543Z,998.02
2017-03-18T02:13:00.492Z,997.95
2017-03-18T02:14:09.452Z,998
2017-03-18T02:15:18.407Z,997.91
2017-03-18T02:16:27.660Z,998.04
2017-03-18T02:17:36.703Z,998.01
2017-03-18T02:18:45.664Z,997.93
2017-03-18T02:19:54.625Z,997.95
2017-03-18T02:21:03.679Z,997.93
2017-03-18T02:22:12.880Z,997.91
2017-03-18T02:23:21.836Z,997.87
2017-03-18T02:24:30.803Z,997.83
2017-03-18T02:25:39.760Z,997.79
2017-03-18T02:26:48.719Z,997.73
2017-03-18T02:27:57.925Z,997.74
2017-03-18T02:29:06.883Z,997.72
2017-03-18T02:30:15.833Z,997.68
2017-03-18T02:31:24.871Z,997.64
2017-03-18T02:32:33.824Z,997.64
2017-03-18T02:33:43.133Z,997.66
2017-03-18T02:34:52.176Z,997.66
2017-03-18T02:36:01.134Z,997.63
2017-03-18T02:37:10.086Z,997.56
2017-03-18T02:38:19.037Z,997.55
2017-03-18T02:39:28.249Z,997.47
2017-03-18T02:40:37.529Z,997.54
2017-03-18T02:41:46.479Z,997.46
2017-03-18T02:42:55.438Z,997.38
2017-03-18T02:44:04.394Z,997.3
2017-03-18T02:45:13.600Z,997.31
2017-03-18T02:46:22.550Z,997.28
2017-03-18T02:47:31.499Z,997.2
2017-03-18T02:48:40.453Z,997.15
2017-03-18T02:49:49.415Z,997.06
2017-03-18T02:50:58.650Z,997.03
2017-03-18T02:52:07.687Z,997.01
2017-03-18T02:53:16.975Z,997.01
2017-03-18T02:54:25.972Z,996.96
2017-03-18T02:55:34.937Z,996.96
2017-03-18T02:56:44.142Z,996.92
2017-03-18T02:57:53.098Z,996.89
2017-03-18T02:59:02.060Z,996.92
2017-03-18T03:00:11.014Z,996.82
2017-03-18T03:01:19.962Z,996.81
2017-03-18T03:02:29.163Z,996.79
2017-03-18T03:03:38.143Z,996.75
2017-03-18T03:04:47.102Z,996.73
2017-03-18T03:05:56.063Z,996.71
2017-03-18T03:07:05.014Z,996.66
2017-03-18T03:08:14.250Z,996.65
2017-03-18T03:09:23.206Z,996.6
2017-03-18T03:10:32.168Z,996.61
2017-03-18T03:11:41.115Z,996.62
2017-03-18T03:12:50.075Z,996.54
2017-03-18T03:13:59.288Z,996.49
2017-03-18T03:15:08.249Z,996.5
2017-03-18T03:16:17.202Z,996.48
2017-03-18T03:17:26.148Z,996.42
2017-03-18T03:18:35.182Z,996.37
2017-03-18T03:19:44.715Z,996.37
2017-03-18T03:20:53.677Z,996.38
2017-03-18T03:22:02.628Z,996.3
2017-03-18T03:23:11.586Z,996.27
2017-03-18T03:24:20.544Z,996.27
2017-03-18T03:25:29.797Z,996.26
2017-03-18T03:26:38.754Z,996.2
2017-03-18T03:27:47.711Z,996.17
2017-03-18T03:28:56.673Z,996.14
2017-03-18T03:30:05.965Z,996.14
2017-03-18T03:31:15.187Z,996.14
2017-03-18T03:32:24.140Z,996.12
2017-03-18T03:33:33.091Z,996.11
2017-03-18T03:34:42.066Z,996.13
2017-03-18T03:35:51.029Z,996.1
2017-03-18T03:37:00.278Z,996.05
2017-03-18T03:38:09.257Z,996
2017-03-18T03:39:18.230Z,995.97
2017-03-18T03:40:27.196Z,996
2017-03-18T03:41:36.149Z,995.97
2017-03-18T03:42:45.347Z,995.93
2017-03-18T03:43:54.307Z,995.92
2017-03-18T03:45:03.264Z,995.87
2017-03-18T03:46:12.220Z,995.85
2017-03-18T03:47:21.260Z,995.84
2017-03-18T03:48:30.493Z,995.8
2017-03-18T03:49:39.453Z,995.78
2017-03-18T03:50:48.403Z,995.81
2017-03-18T03:51:57.365Z,995.79
2017-03-18T03:53:06.343Z,995.76
2017-03-18T03:54:15.549Z,995.78
2017-03-18T03:55:24.843Z,995.79
2017-03-18T03:56:33.788Z,995.82
2017-03-18T03:57:42.743Z,995.76
2017-03-18T03:58:51.705Z,995.74
2017-03-18T04:00:00.968Z,995.65
2017-03-18T04:01:09.925Z,995.6
2017-03-18T04:02:18.878Z,995.58
2017-03-18T04:03:27.922Z,995.56
2017-03-18T04:04:36.882Z,995.57
2017-03-18T04:05:46.090Z,995.44
2017-03-18T04:06:55.044Z,995.47
2017-03-18T04:08:04.001Z,995.46
2017-03-18T04:09:12.956Z,995.43
2017-03-18T04:10:22.232Z,995.43
2017-03-18T04:11:31.488Z,995.39
2017-03-18T04:12:40.469Z,995.34
2017-03-18T04:13:49.429Z,995.34
2017-03-18T04:14:58.391Z,995.31
2017-03-18T04:16:07.367Z,995.3
2017-03-18T04:17:16.570Z,995.28
2017-03-18T04:18:25.520Z,995.27
2017-03-18T04:19:34.482Z,995.22
2017-03-18T04:20:43.432Z,995.19
2017-03-18T04:21:52.378Z,995.18
2017-03-18T04:23:01.579Z,995.15
2017-03-18T04:24:10.533Z,995.04
2017-03-18T04:25:19.489Z,995.08
2017-03-18T04:26:28.526Z,995
2017-03-18T04:27:37.474Z,994.89
2017-03-18T04:28:46.731Z,994.88
2017-03-18T04:29:55.689Z,994.8
2017-03-18T04:31:04.637Z,994.78
2017-03-18T04:32:13.589Z,994.71
2017-03-18T04:33:22.553Z,994.67
2017-03-18T04:34:31.770Z,994.71
2017-03-18T04:35:40.724Z,994.61
2017-03-18T04:36:49.679Z,994.63
2017-03-18T04:37:58.631Z,994.56
2017-03-18T04:39:07.598Z,994.59
2017-03-18T04:40:16.852Z,994.59
2017-03-18T04:41:25.894Z,994.56
2017-03-18T04:42:34.870Z,994.5
2017-03-18T04:43:43.827Z,994.48
2017-03-18T04:44:52.787Z,994.37
2017-03-18T04:46:02.052Z,994.31
2017-03-18T04:47:11.001Z,994.29
2017-03-18T04:48:20.045Z,994.27
2017-03-18T04:49:28.997Z,994.26
2017-03-18T04:50:37.946Z,994.3
2017-03-18T04:51:47.148Z,994.34
2017-03-18T04:52:56.098Z,994.32
2017-03-18T04:54:05.136Z,994.32
2017-03-18T04:55:14.183Z,994.3
2017-03-18T04:56:23.134Z,994.29
2017-03-18T04:57:32.421Z,994.29
2017-03-18T04:58:41.384Z,994.24
2017-03-18T04:59:50.349Z,994.22
2017-03-18T05:00:59.304Z,994.2
2017-03-18T05:02:08.255Z,994.16
2017-03-18T05:03:17.545Z,994.11
2017-03-18T05:04:26.502Z,994.09
2017-03-18T05:05:35.452Z,994.08
2017-03-18T05:06:44.400Z,994.03
2017-03-18T05:07:53.352Z,994
2017-03-18T05:09:02.555Z,993.92
2017-03-18T05:10:11.501Z,993.88
2017-03-18T05:11:20.481Z,993.79
2017-03-18T05:12:29.447Z,993.75
2017-03-18T05:13:38.405Z,993.72
2017-03-18T05:14:47.662Z,993.61
2017-03-18T05:15:56.617Z,993.61
2017-03-18T05:17:05.567Z,993.5
2017-03-18T05:18:14.525Z,993.46
2017-03-18T05:19:23.485Z,993.41
2017-03-18T05:20:32.738Z,993.4
2017-03-18T05:21:41.683Z,993.47
2017-03-18T05:22:50.636Z,993.42
2017-03-18T05:23:59.597Z,993.44
2017-03-18T05:25:08.556Z,993.42
2017-03-18T05:26:17.758Z,993.33
2017-03-18T05:27:27.043Z,993.34
2017-03-18T05:28:36.002Z,993.32
2017-03-18T05:29:44.956Z,993.33
2017-03-18T05:30:53.910Z,993.27
2017-03-18T05:32:03.176Z,993.2
2017-03-18T05:33:12.126Z,993.15
2017-03-18T05:34:21.082Z,993.13
2017-03-18T05:35:30.035Z,993.03
2017-03-18T05:36:38.986Z,993.03
2017-03-18T05:37:48.240Z,993.06
2017-03-18T05:38:57.238Z,993.05
2017-03-18T05:40:06.196Z,993
2017-03-18T05:41:15.157Z,992.97
2017-03-18T05:42:24.106Z,992.98
2017-03-18T05:43:33.416Z,992.97
2017-03-18T05:44:42.375Z,992.89
2017-03-18T05:45:51.327Z,992.91
2017-03-18T05:47:00.283Z,992.78
2017-03-18T05:48:09.233Z,992.71
2017-03-18T05:49:18.441Z,992.71
2017-03-18T05:50:27.400Z,992.71
2017-03-18T05:51:36.350Z,992.6
2017-03-18T05:52:45.624Z,992.74
2017-03-18T05:53:54.582Z,992.55
2017-03-18T05:55:03.841Z,992.51
2017-03-18T05:56:12.787Z,992.39
2017-03-18T05:57:21.738Z,992.38
2017-03-18T05:58:30.692Z,992.42
2017-03-18T05:59:39.650Z,992.38
2017-03-18T06:00:48.908Z,992.41
2017-03-18T06:01:57.859Z,992.37
2017-03-18T06:03:06.814Z,992.33
2017-03-18T06:04:15.780Z,992.34
2017-03-18T06:05:24.735Z,992.33
2017-03-18T06:06:33.937Z,992.3
2017-03-18T06:07:42.893Z,992.33
2017-03-18T06:08:51.892Z,992.26
2017-03-18T06:10:00.933Z,992.24
2017-03-18T06:11:09.891Z,992.25
2017-03-18T06:12:19.092Z,992.18
2017-03-18T06:13:28.416Z,992.16
2017-03-18T06:14:37.371Z,992.21
2017-03-18T06:15:46.415Z,992.22
2017-03-18T06:16:55.367Z,992.17
2017-03-18T06:18:04.617Z,992.13
2017-03-18T06:19:13.570Z,992.07
2017-03-18T06:20:22.618Z,992.02
2017-03-18T06:21:31.568Z,992
2017-03-18T06:22:40.523Z,992.03
2017-03-18T06:23:49.778Z,991.95
2017-03-18T06:24:58.735Z,991.9
2017-03-18T06:26:07.695Z,991.93
2017-03-18T06:27:16.647Z,991.83
2017-03-18T06:28:25.696Z,991.78
2017-03-18T06:29:34.952Z,991.72
2017-03-18T06:30:43.904Z,991.64
2017-03-18T06:31:52.941Z,991.63
2017-03-18T06:33:01.921Z,991.59
2017-03-18T06:34:10.880Z,991.54
2017-03-18T06:35:20.095Z,991.52
2017-03-18T06:36:29.052Z,991.58
2017-03-18T06:37:38.005Z,991.63
2017-03-18T06:38:46.966Z,991.65
2017-03-18T06:39:55.962Z,991.59
2017-03-18T06:41:05.304Z,991.53
2017-03-18T06:42:14.251Z,991.49
2017-03-18T06:43:23.200Z,991.34
2017-03-18T06:44:32.160Z,991.39
2017-03-18T06:45:41.107Z,991.41
2017-03-18T06:46:50.310Z,991.38
2017-03-18T06:47:59.267Z,991.25
2017-03-18T06:49:08.221Z,991.25
2017-03-18T06:50:17.267Z,991.25
2017-03-18T06:51:26.213Z,991.16
2017-03-18T06:52:35.412Z,991.17
2017-03-18T06:53:44.374Z,991.08
2017-03-18T06:54:53.333Z,991.05
2017-03-18T06:56:02.296Z,991.03
2017-03-18T06:57:11.252Z,990.89
2017-03-18T06:58:20.502Z,990.79
2017-03-18T06:59:29.456Z,990.78
2017-03-18T07:00:38.433Z,990.79
2017-03-18T07:01:47.391Z,990.71
2017-03-18T07:02:56.430Z,990.66
2017-03-18T07:04:05.687Z,990.6
2017-03-18T07:05:14.637Z,990.63
2017-03-18T07:06:23.587Z,990.57
2017-03-18T07:07:32.539Z,990.52
2017-03-18T07:08:41.498Z,990.5
2017-03-18T07:09:50.748Z,990.53
2017-03-18T07:10:59.704Z,990.53
2017-03-18T07:12:08.743Z,990.5
2017-03-18T07:13:17.692Z,990.47
2017-03-18T07:14:26.655Z,990.49
2017-03-18T07:15:35.906Z,990.43
2017-03-18T07:16:44.868Z,990.43
2017-03-18T07:17:53.827Z,990.4
2017-03-18T07:19:02.898Z,990.43
2017-03-18T07:20:12.184Z,990.39
2017-03-18T07:21:21.433Z,990.4
2017-03-18T07:22:30.385Z,990.41
2017-03-18T07:23:39.346Z,990.35
2017-03-18T07:24:48.300Z,990.37
2017-03-18T07:25:57.344Z,990.33
2017-03-18T07:27:06.594Z,990.29
2017-03-18T07:28:15.541Z,990.21
2017-03-18T07:29:24.500Z,990.24
2017-03-18T07:30:33.455Z,990.17
2017-03-18T07:31:42.424Z,990.2
2017-03-18T07:32:51.628Z,990.17
2017-03-18T07:34:00.591Z,990.16
2017-03-18T07:35:09.545Z,990.04
2017-03-18T07:36:18.506Z,989.94
2017-03-18T07:37:27.459Z,990.03
2017-03-18T07:38:36.665Z,990.04
2017-03-18T07:39:45.617Z,990.04
2017-03-18T07:40:54.661Z,990
2017-03-18T07:42:03.607Z,989.83
2017-03-18T07:43:12.685Z,989.86
2017-03-18T07:44:21.942Z,989.79
2017-03-18T07:45:30.904Z,989.9
2017-03-18T07:46:39.856Z,989.83
2017-03-18T07:47:48.832Z,989.7
2017-03-18T07:48:57.791Z,989.62
2017-03-18T07:50:07.056Z,989.59
2017-03-18T07:51:16.008Z,989.79
2017-03-18T07:52:25.051Z,989.75
2017-03-18T07:53:34.009Z,989.83
2017-03-18T07:54:42.966Z,989.75
2017-03-18T07:55:52.225Z,989.78
2017-03-18T07:57:01.179Z,989.66
2017-03-18T07:58:10.180Z,989.51
2017-03-18T07:59:19.139Z,989.32
2017-03-18T08:00:28.127Z,989.32
2017-03-18T08:01:37.383Z,989.33
2017-03-18T08:02:46.330Z,989.6
2017-03-18T08:03:55.379Z,989.59
2017-03-18T08:05:04.665Z,989.66
2017-03-18T08:06:13.621Z,989.57
2017-03-18T08:07:22.901Z,989.43
2017-03-18T08:08:31.897Z,989.52
2017-03-18T08:09:40.857Z,989.48
2017-03-18T08:10:49.807Z,989.46
2017-03-18T08:11:58.756Z,989.41
2017-03-18T08:13:07.961Z,989.31
2017-03-18T08:14:16.922Z,989.21
2017-03-18T08:15:25.894Z,989.25
2017-03-18T08:16:34.852Z,989.24
2017-03-18T08:17:43.813Z,989.18
2017-03-18T08:18:53.073Z,989.19
2017-03-18T08:20:02.030Z,989.28
2017-03-18T08:21:11.027Z,989.45
2017-03-18T08:22:19.978Z,989.47
2017-03-18T08:23:28.934Z,989.45
2017-03-18T08:24:38.141Z,989.45
2017-03-18T08:25:47.098Z,989.22
2017-03-18T08:26:56.052Z,989.1
2017-03-18T08:28:05.008Z,989.17
2017-03-18T08:29:13.968Z,989.18
2017-03-18T08:30:23.177Z,989.21
2017-03-18T08:31:32.129Z,989.26
2017-03-18T08:32:41.087Z,989.23
2017-03-18T08:33:50.053Z,989.22
2017-03-18T08:34:59.015Z,989.06
2017-03-18T08:36:08.273Z,989.09
2017-03-18T08:37:17.220Z,989.01
2017-03-18T08:38:26.256Z,988.8
2017-03-18T08:39:35.538Z,988.79
2017-03-18T08:40:44.490Z,988.98
2017-03-18T08:41:53.746Z,989.04
2017-03-18T08:43:03.025Z,989.13
2017-03-18T08:44:11.981Z,989.08
2017-03-18T08:45:20.940Z,989.12
2017-03-18T08:46:30.229Z,989.14
2017-03-18T08:47:39.484Z,988.94
2017-03-18T08:48:48.446Z,989.05
2017-03-18T08:49:57.399Z,988.9
2017-03-18T08:51:06.352Z,988.82
2017-03-18T08:52:15.307Z,988.88
2017-03-18T08:53:24.515Z,988.73
2017-03-18T08:54:33.470Z,988.85
2017-03-18T08:55:42.424Z,988.83
2017-03-18T08:56:51.376Z,988.83
2017-03-18T08:58:00.332Z,988.9
2017-03-18T08:59:09.591Z,988.89
2017-03-18T09:00:18.554Z,988.8
2017-03-18T09:01:27.501Z,988.84
2017-03-18T09:02:36.455Z,988.87
2017-03-18T09:03:45.422Z,988.79
2017-03-18T09:04:54.685Z,988.73
2017-03-18T09:06:03.652Z,988.71
2017-03-18T09:07:12.606Z,988.7
2017-03-18T09:08:21.565Z,988.72
2017-03-18T09:09:30.606Z,988.86
2017-03-18T09:10:39.863Z,988.85
2017-03-18T09:11:48.851Z,988.86
2017-03-18T09:12:57.842Z,988.87
2017-03-18T09:14:06.832Z,988.79
2017-03-18T09:15:15.792Z,988.75
2017-03-18T09:16:25.070Z,988.74
2017-03-18T09:17:34.018Z,988.65
2017-03-18T09:18:42.975Z,988.7
2017-03-18T09:19:52.019Z,988.71
2017-03-18T09:21:00.972Z,988.58
2017-03-18T09:22:10.177Z,988.6
2017-03-18T09:23:19.152Z,988.72
2017-03-18T09:24:28.111Z,988.53
2017-03-18T09:25:37.070Z,988.62
2017-03-18T09:26:46.021Z,988.58
2017-03-18T09:27:55.224Z,988.65
2017-03-18T09:29:04.264Z,988.62
2017-03-18T09:30:13.220Z,988.68
2017-03-18T09:31:22.217Z,988.8
2017-03-18T09:32:31.169Z,988.68
2017-03-18T09:33:40.383Z,988.63
2017-03-18T09:34:49.341Z,988.73
2017-03-18T09:35:58.626Z,988.72
2017-03-18T09:37:07.579Z,988.6
2017-03-18T09:38:16.528Z,988.67
2017-03-18T09:39:25.736Z,988.67
2017-03-18T09:40:34.690Z,988.66
2017-03-18T09:41:43.682Z,988.61
2017-03-18T09:42:52.652Z,988.54
2017-03-18T09:44:01.611Z,988.57
2017-03-18T09:45:10.870Z,988.46
2017-03-18T09:46:19.827Z,988.46
2017-03-18T09:47:28.779Z,988.5
2017-03-18T09:48:37.739Z,988.6
2017-03-18T09:49:46.702Z,988.53
2017-03-18T09:50:56.051Z,988.48
2017-03-18T09:52:05.011Z,988.45
2017-03-18T09:53:13.970Z,988.51
2017-03-18T09:54:22.936Z,988.48
2017-03-18T09:55:32.216Z,988.46
2017-03-18T09:56:41.519Z,988.47
2017-03-18T09:57:50.475Z,988.4
2017-03-18T09:58:59.435Z,988.45
2017-03-18T10:00:08.396Z,988.36
2017-03-18T10:01:17.352Z,988.39
2017-03-18T10:02:26.555Z,988.48
2017-03-18T10:03:35.509Z,988.48
2017-03-18T10:04:44.472Z,988.47
2017-03-18T10:05:53.428Z,988.41
2017-03-18T10:07:02.471Z,988.45
2017-03-18T10:08:11.828Z,988.38
2017-03-18T10:09:20.792Z,988.47
2017-03-18T10:10:29.749Z,988.43
2017-03-18T10:11:38.701Z,988.37
2017-03-18T10:12:47.653Z,988.4
2017-03-18T10:13:56.913Z,988.43
2017-03-18T10:15:05.878Z,988.38
2017-03-18T10:16:14.831Z,988.22
2017-03-18T10:17:23.785Z,988.34
2017-03-18T10:18:32.745Z,988.29
2017-03-18T10:19:42.000Z,988.33
2017-03-18T10:20:50.951Z,988.35
2017-03-18T10:21:59.903Z,988.29
2017-03-18T10:23:08.857Z,988.27
2017-03-18T10:24:17.817Z,988.2
2017-03-18T10:25:27.063Z,988.25
2017-03-18T10:26:36.026Z,988.27
2017-03-18T10:27:45.071Z,988.15
2017-03-18T10:28:54.119Z,988.13
2017-03-18T10:30:03.079Z,988.26
2017-03-18T10:31:12.340Z,988.17
2017-03-18T10:32:21.295Z,988.14
2017-03-18T10:33:30.248Z,988.28
2017-03-18T10:34:39.213Z,988.2
2017-03-18T10:35:48.168Z,988.19
2017-03-18T10:36:57.418Z,988.1
2017-03-18T10:38:06.372Z,988.1
2017-03-18T10:39:15.334Z,988.19
2017-03-18T10:40:24.298Z,988.13
2017-03-18T10:41:33.254Z,988.14
2017-03-18T10:42:42.509Z,988.22
2017-03-18T10:43:51.474Z,988.22
2017-03-18T10:45:00.433Z,988.12
2017-03-18T10:46:09.383Z,988.11
2017-03-18T10:47:18.338Z,988.19
2017-03-18T10:48:27.600Z,988.13
2017-03-18T10:49:36.557Z,988.09
2017-03-18T10:50:45.514Z,988.2
2017-03-18T10:51:54.473Z,988.12
2017-03-18T10:53:03.437Z,988.32
2017-03-18T10:54:12.696Z,988.42
2017-03-18T10:55:21.654Z,988.34
2017-03-18T10:56:30.609Z,988.27
2017-03-18T10:57:39.648Z,988.22
2017-03-18T10:58:48.608Z,988.32
2017-03-18T10:59:57.872Z,988.27
2017-03-18T11:01:06.826Z,988.36
2017-03-18T11:02:15.783Z,988.38
2017-03-18T11:03:24.748Z,988.35
2017-03-18T11:04:33.706Z,988.25
2017-03-18T11:05:42.916Z,988.23
2017-03-18T11:06:51.862Z,988.28
2017-03-18T11:08:00.908Z,988.46
2017-03-18T11:09:09.863Z,988.43
2017-03-18T11:10:18.823Z,988.47
2017-03-18T11:11:28.085Z,988.43
2017-03-18T11:12:37.129Z,988.46
2017-03-18T11:13:46.094Z,988.5
2017-03-18T11:14:55.057Z,988.53
2017-03-18T11:16:04.023Z,988.44
2017-03-18T11:17:13.289Z,988.46
2017-03-18T11:18:22.246Z,988.5
2017-03-18T11:19:31.239Z,988.49
2017-03-18T11:20:40.201Z,988.5
2017-03-18T11:21:49.157Z,988.61
2017-03-18T11:22:58.411Z,988.37
2017-03-18T11:24:07.374Z,988.59
2017-03-18T11:25:16.341Z,988.5
2017-03-18T11:26:25.292Z,988.41
2017-03-18T11:27:34.334Z,988.55
2017-03-18T11:28:43.595Z,988.76
2017-03-18T11:29:52.563Z,988.7
2017-03-18T11:31:01.525Z,988.77
2017-03-18T11:32:10.480Z,988.78
2017-03-18T11:33:19.441Z,988.82
2017-03-18T11:34:28.651Z,988.61
2017-03-18T11:35:37.615Z,988.87
2017-03-18T11:36:46.655Z,988.94
2017-03-18T11:37:55.620Z,988.96
2017-03-18T11:39:04.585Z,988.97
2017-03-18T11:40:13.802Z,989.2
2017-03-18T11:41:22.757Z,989.17
2017-03-18T11:42:31.708Z,989.31
2017-03-18T11:43:40.666Z,989.3
2017-03-18T11:44:49.627Z,989.23
2017-03-18T11:45:58.832Z,989.16
2017-03-18T11:47:07.790Z,989.5
2017-03-18T11:48:16.758Z,989.26
2017-03-18T11:49:25.750Z,989.32
2017-03-18T11:50:34.718Z,989.58
2017-03-18T11:51:43.927Z,989.53
2017-03-18T11:52:52.881Z,989.47
2017-03-18T11:54:01.845Z,989.45
2017-03-18T11:55:10.820Z,989.44
2017-03-18T11:56:19.772Z,989.37
2017-03-18T11:57:29.029Z,989.61
2017-03-18T11:58:37.996Z,989.57
2017-03-18T11:59:46.956Z,989.67
2017-03-18T12:00:55.916Z,989.7
2017-03-18T12:02:04.868Z,989.66
2017-03-18T12:03:14.122Z,989.92
2017-03-18T12:04:23.087Z,989.87
2017-03-18T12:05:32.078Z,990.09
2017-03-18T12:06:41.120Z,989.98
2017-03-18T12:07:50.085Z,990.06
2017-03-18T12:08:59.293Z,989.92
2017-03-18T12:10:08.251Z,989.78
2017-03-18T12:11:17.203Z,990.15
2017-03-18T12:12:26.158Z,990.22
2017-03-18T12:13:35.112Z,990.41
2017-03-18T12:14:44.371Z,990.19
2017-03-18T12:15:53.325Z,990.45
2017-03-18T12:17:02.284Z,990.24
2017-03-18T12:18:11.240Z,990.27
2017-03-18T12:19:20.215Z,990.34
2017-03-18T12:20:29.494Z,990.49
2017-03-18T12:21:38.764Z,990.6
2017-03-18T12:22:47.721Z,990.51
2017-03-18T12:23:56.684Z,990.8
2017-03-18T12:25:05.968Z,990.57
2017-03-18T12:26:15.313Z,990.88
2017-03-18T12:27:24.596Z,990.74
2017-03-18T12:28:33.636Z,990.74
2017-03-18T12:29:42.919Z,990.68
2017-03-18T12:30:51.899Z,990.93
2017-03-18T12:32:01.153Z,990.9
2017-03-18T12:33:10.201Z,990.92
2017-03-18T12:34:19.161Z,990.89
2017-03-18T12:35:28.129Z,990.8
2017-03-18T12:36:37.085Z,991.17
2017-03-18T12:37:46.337Z,991.09
2017-03-18T12:38:55.297Z,991.05
2017-03-18T12:40:04.254Z,991.21
2017-03-18T12:41:13.217Z,991.08
2017-03-18T12:42:22.266Z,991.08
2017-03-18T12:43:31.521Z,991.1
2017-03-18T12:44:40.489Z,991.27
2017-03-18T12:45:49.449Z,991.33
2017-03-18T12:46:58.407Z,991.3
2017-03-18T12:48:07.365Z,991.53
2017-03-18T12:49:16.637Z,991.38
2017-03-18T12:50:25.601Z,991.42
2017-03-18T12:51:34.644Z,991.42
2017-03-18T12:52:43.681Z,991.82
2017-03-18T12:53:52.641Z,991.73
2017-03-18T12:55:01.910Z,991.81
2017-03-18T12:56:11.185Z,991.69
2017-03-18T12:57:20.228Z,991.68
2017-03-18T12:58:29.180Z,992.04
2017-03-18T12:59:38.141Z,992.1
2017-03-18T13:00:47.480Z,991.92
2017-03-18T13:01:56.431Z,991.66
2017-03-18T13:03:05.714Z,991.84
2017-03-18T13:04:14.674Z,991.92
2017-03-18T13:05:23.634Z,991.96
2017-03-18T13:06:32.886Z,992.13
2017-03-18T13:07:41.842Z,992.09
2017-03-18T13:08:50.804Z,992.21
2017-03-18T13:09:59.767Z,992.26
2017-03-18T13:11:08.723Z,992.14
2017-03-18T13:12:17.982Z,992.11
2017-03-18T13:13:26.938Z,992.34
2017-03-18T13:14:35.896Z,992.28
2017-03-18T13:15:44.858Z,992.44
2017-03-18T13:16:53.810Z,992.2
2017-03-18T13:18:03.153Z,992.39
2017-03-18T13:19:12.152Z,992.41
2017-03-18T13:20:21.117Z,992.43
2017-03-18T13:21:30.070Z,992.55
2017-03-18T13:22:39.021Z,992.61
2017-03-18T13:23:48.367Z,992.62
2017-03-18T13:24:57.329Z,992.74
2017-03-18T13:26:06.285Z,992.66
2017-03-18T13:27:15.265Z,992.77
2017-03-18T13:28:24.225Z,992.68
2017-03-18T13:29:33.426Z,992.87
2017-03-18T13:30:42.468Z,992.6
2017-03-18T13:31:51.423Z,992.82
2017-03-18T13:33:00.386Z,992.81
2017-03-18T13:34:09.355Z,992.89
2017-03-18T13:35:18.586Z,992.74
2017-03-18T13:36:27.540Z,993.06
2017-03-18T13:37:36.497Z,993.1
2017-03-18T13:38:45.458Z,993.09
2017-03-18T13:39:54.415Z,992.91
2017-03-18T13:41:03.631Z,992.99
2017-03-18T13:42:12.593Z,993.07
2017-03-18T13:43:21.547Z,993.22
2017-03-18T13:44:30.513Z,993.19
2017-03-18T13:45:39.469Z,993.3
2017-03-18T13:46:48.733Z,993.28
2017-03-18T13:47:57.686Z,993.17
2017-03-18T13:49:06.733Z,993.22
2017-03-18T13:50:16.017Z,993.3
2017-03-18T13:51:24.973Z,993.19
2017-03-18T13:52:34.239Z,993.26
2017-03-18T13:53:43.519Z,993.33
2017-03-18T13:54:52.484Z,993.45
2017-03-18T13:56:01.447Z,993.75
2017-03-18T13:57:10.405Z,993.42
2017-03-18T13:58:19.661Z,993.65
2017-03-18T13:59:28.951Z,993.55
2017-03-18T14:00:37.906Z,993.68
2017-03-18T14:01:46.863Z,993.68
2017-03-18T14:02:55.830Z,993.76
2017-03-18T14:04:05.088Z,993.45
2017-03-18T14:05:14.048Z,993.72
2017-03-18T14:06:23.006Z,993.76
2017-03-18T14:07:31.958Z,994.04
2017-03-18T14:08:40.930Z,993.87
2017-03-18T14:09:50.196Z,994.1
2017-03-18T14:10:59.167Z,993.93
2017-03-18T14:12:08.125Z,994.03
2017-03-18T14:13:17.080Z,993.97
2017-03-18T14:14:26.047Z,993.93
2017-03-18T14:15:35.304Z,993.87
2017-03-18T14:16:44.262Z,994.11
2017-03-18T14:17:53.214Z,994.29
2017-03-18T14:19:02.262Z,994.03
2017-03-18T14:20:11.220Z,994.29
2017-03-18T14:21:20.477Z,994.29
2017-03-18T14:22:29.430Z,994.4
2017-03-18T14:23:38.389Z,994.51
2017-03-18T14:24:47.355Z,994.22